Impacts TAF Board INFO
FOR SITUATIONAL AWARENESS. NOT TO BE USED FOR FLIGHT PLANNING PURPOSES.
IDs:

KMCI - Kansas City Intl, MO, US

Issued at 1239 UTC 27 Feb 2017
Updated at 1601 UTC 27 Feb 2017
Potential Impact None Slight Moderate High
Time1553Z 27/16Z 27/17Z 27/18Z 27/19Z 27/20Z 27/21Z 27/22Z 27/23Z 28/00Z 28/01Z 28/02Z 28/03Z 28/04Z
Type OBS PRVL PRVL PRVL PRVL PRVL PRVL PRVL PRVL PRVL PRVL PRVL PRVL PRVL
VIS 10 >6 >6 >6 >6 >6 >6 >6 >6 >6 >6 >6 >6 >6
CIG -- -- 100 100 100 100 100 100 100 30 30 30 30 30
Cover CLR SKC BKN BKN BKN BKN BKN BKN BKN BKN BKN BKN BKN BKN
FltCat VFR VFR VFR VFR VFR VFR VFR VFR VFR MVFR MVFR MVFR MVFR MVFR
WX -- -- -- -- -- -- -- -- -- VCTS VCTS VCTS VCTS VCTS
WDir 140 170 150 150 150 150 150 150 150 170 170 170 170 170
WSpd 11 7 13 13 13 13 13 13 13 10 10 10 10 10
WGst -- -- -- -- -- -- -- -- -- -- -- -- -- --

Raw TAF
KMCI 271239Z 2713/2812 17007KT P6SM SKC
  TEMPO 2713/2714 VRB04KT 1/4SM FZFG VV001
  FM271700 15013KT P6SM BKN100
  FM280000 17010KT P6SM VCTS BKN030CB
  FM280800 19014KT P6SM BKN025


Raw METAR
KMCI 271553Z 14011KT 10SM CLR 08/01 A3003 RMK AO2 SLP171 T00780006
KMCI 271453Z 16006KT 10SM CLR 04/02 A3004 RMK AO2 SLP177 I3001 T00390022 53008
KMCI 271353Z 11005KT 4SM BR FEW002 01/00 A3002 RMK AO2 SLP173 T00060000
KMCI 271323Z 13005KT 3SM BR CLR M01/M01 A3002 RMK AO2 T10111011
KMCI 271259Z 15007KT 2SM R19R/2000VP6000FT BR FEW002 M03/M03 A3002 RMK AO2 TWR VIS 3 T10281028
KMCI 271253Z 14007KT 1/4SM R19R/1400VP6000FT FZFG BKN001 M02/M02 A3002 RMK AO2 TWR VIS 3 SLP173 I1001 T10171022
KMCI 271248Z 14007KT 1/4SM R19R/1400V4500FT FZFG BKN001 M01/M01 A3002 RMK AO2 TWR VIS 3 I1001
KMCI 271235Z COR 10005KT 1/4SM R19R/1000V2600FT FZFG VV001 00/M01 A3002 RMK AO2 TWR VIS 3 I1001 T00001006

METAR Board
Radar Display
Forecast Discussion

FOR SITUATIONAL AWARENESS. NOT TO BE USED FOR FLIGHT PLANNING PURPOSES.

Page loaded:  16:01 UTC  |   08:01 AM Pacific  |   09:01 AM Mountain  |   10:01 AM Central  |   11:01 AM Eastern

 

ADVISORIES

FORECASTS

FORECASTS

OBSERVATIONS

USER TOOLS

ABOUT US